createdAt,value
2018-06-13T00:00:05.443Z,1009.21
2018-06-13T00:01:05.416Z,1009.26
2018-06-13T00:02:05.391Z,1009.26
2018-06-13T00:03:05.369Z,1009.31
2018-06-13T00:04:05.340Z,1009.36
2018-06-13T00:05:05.312Z,1009.29
2018-06-13T00:06:05.287Z,1009.37
2018-06-13T00:07:05.261Z,1009.30
2018-06-13T00:08:05.236Z,1009.37
2018-06-13T00:09:05.218Z,1009.26
2018-06-13T00:10:05.183Z,1009.33
2018-06-13T00:11:05.156Z,1009.34
2018-06-13T00:12:05.130Z,1009.29
2018-06-13T00:13:05.106Z,1009.29
2018-06-13T00:14:05.080Z,1009.30
2018-06-13T00:15:05.062Z,1009.28
2018-06-13T00:16:05.042Z,1009.27
2018-06-13T00:17:05.000Z,1009.24
2018-06-13T00:18:04.976Z,1009.27
2018-06-13T00:19:04.948Z,1009.20
2018-06-13T00:20:04.923Z,1009.28
2018-06-13T00:21:04.900Z,1009.26
2018-06-13T00:22:04.870Z,1009.28
2018-06-13T00:23:04.844Z,1009.30
2018-06-13T00:24:04.820Z,1009.36
2018-06-13T00:25:04.794Z,1009.33
2018-06-13T00:26:04.767Z,1009.33
2018-06-13T00:27:04.740Z,1009.27
2018-06-13T00:28:04.719Z,1009.21
2018-06-13T00:29:04.689Z,1009.26
2018-06-13T00:30:04.662Z,1009.32
2018-06-13T00:31:04.648Z,1009.37
2018-06-13T00:32:04.610Z,1009.34
2018-06-13T00:33:04.588Z,1009.37
2018-06-13T00:34:04.560Z,1009.39
2018-06-13T00:35:04.533Z,1009.37
2018-06-13T00:36:04.509Z,1009.42
2018-06-13T00:37:04.544Z,1009.45
2018-06-13T00:38:04.457Z,1009.41
2018-06-13T00:39:04.432Z,1009.35
2018-06-13T00:40:04.403Z,1009.45
2018-06-13T00:41:04.375Z,1009.46
2018-06-13T00:42:04.351Z,1009.46
2018-06-13T00:43:04.327Z,1009.45
2018-06-13T00:44:04.297Z,1009.51
2018-06-13T00:45:04.270Z,1009.44
2018-06-13T00:46:04.244Z,1009.54
2018-06-13T00:47:04.291Z,1009.56
2018-06-13T00:48:04.195Z,1009.55
2018-06-13T00:49:04.165Z,1009.56
2018-06-13T00:50:04.144Z,1009.53
2018-06-13T00:51:04.113Z,1009.45
2018-06-13T00:52:04.092Z,1009.53
2018-06-13T00:53:04.060Z,1009.50
2018-06-13T00:54:04.034Z,1009.48
2018-06-13T00:55:04.012Z,1009.51
2018-06-13T00:56:03.983Z,1009.49
2018-06-13T00:57:03.956Z,1009.46
2018-06-13T00:58:03.929Z,1009.50
2018-06-13T00:59:03.903Z,1009.43
2018-06-13T01:00:03.878Z,1009.44
2018-06-13T01:01:03.850Z,1009.38
2018-06-13T01:02:03.825Z,1009.39
2018-06-13T01:03:03.803Z,1009.36
2018-06-13T01:04:03.772Z,1009.32
2018-06-13T01:05:03.746Z,1009.27
2018-06-13T01:06:03.719Z,1009.27
2018-06-13T01:07:03.693Z,1009.22
2018-06-13T01:08:03.668Z,1009.24
2018-06-13T01:09:03.640Z,1009.23
2018-06-13T01:10:03.615Z,1009.22
2018-06-13T01:11:03.591Z,1009.13
2018-06-13T01:12:03.564Z,1009.17
2018-06-13T01:13:03.552Z,1009.13
2018-06-13T01:14:03.509Z,1009.19
2018-06-13T01:15:03.489Z,1009.19
2018-06-13T01:16:03.458Z,1009.16
2018-06-13T01:17:03.432Z,1009.18
2018-06-13T01:18:03.407Z,1009.22
2018-06-13T01:19:03.379Z,1009.19
2018-06-13T01:20:03.353Z,1009.22
2018-06-13T01:21:03.333Z,1009.16
2018-06-13T01:22:03.300Z,1009.20
2018-06-13T01:23:03.274Z,1009.21
2018-06-13T01:24:03.249Z,1009.16
2018-06-13T01:25:03.221Z,1009.19
2018-06-13T01:26:03.195Z,1009.20
2018-06-13T01:27:03.169Z,1009.18
2018-06-13T01:28:03.143Z,1009.11
2018-06-13T01:29:03.117Z,1009.14
2018-06-13T01:30:03.094Z,1009.14
2018-06-13T01:31:03.065Z,1009.08
2018-06-13T01:32:03.041Z,1009.13
2018-06-13T01:33:03.054Z,1009.07
2018-06-13T01:34:02.986Z,1009.05
2018-06-13T01:35:02.960Z,1009.11
2018-06-13T01:36:02.939Z,1009.03
2018-06-13T01:37:02.907Z,1009.11
2018-06-13T01:38:02.881Z,1009.06
2018-06-13T01:39:02.856Z,1009.06
2018-06-13T01:40:02.982Z,1009.07
2018-06-13T01:41:02.802Z,1009.03
2018-06-13T01:42:02.778Z,1008.99
2018-06-13T01:43:02.752Z,1009.03
2018-06-13T01:44:02.724Z,1009.00
2018-06-13T01:45:02.705Z,1009.00
2018-06-13T01:46:02.670Z,1009.03
2018-06-13T01:47:02.654Z,1008.98
2018-06-13T01:48:02.626Z,1008.96
2018-06-13T01:49:02.592Z,1008.98
2018-06-13T01:50:02.566Z,1009.03
2018-06-13T01:51:02.540Z,1009.02
2018-06-13T01:52:02.515Z,1009.04
2018-06-13T01:53:02.487Z,1009.02
2018-06-13T01:54:02.461Z,1009.07
2018-06-13T01:55:02.441Z,1009.08
2018-06-13T01:56:02.408Z,1008.99
2018-06-13T01:57:02.381Z,1009.06
2018-06-13T01:58:02.356Z,1009.03
2018-06-13T01:59:02.330Z,1009.05
2018-06-13T02:00:02.305Z,1009.02
2018-06-13T02:01:02.279Z,1009.08
2018-06-13T02:02:02.260Z,1009.05
2018-06-13T02:03:02.227Z,1009.04
2018-06-13T02:04:02.202Z,1008.99
2018-06-13T02:05:02.178Z,1009.05
2018-06-13T02:06:02.150Z,1009.09
2018-06-13T02:07:02.174Z,1009.05
2018-06-13T02:08:02.096Z,1009.10
2018-06-13T02:09:02.068Z,1009.09
2018-06-13T02:10:02.043Z,1009.10
2018-06-13T02:11:02.017Z,1009.11
2018-06-13T02:12:01.991Z,1009.07
2018-06-13T02:13:01.965Z,1009.10
2018-06-13T02:14:01.942Z,1009.10
2018-06-13T02:15:01.928Z,1009.07
2018-06-13T02:16:01.888Z,1009.04
2018-06-13T02:17:01.859Z,1009.06
2018-06-13T02:18:01.834Z,1009.02
2018-06-13T02:19:01.808Z,1009.06
2018-06-13T02:20:01.782Z,1009.07
2018-06-13T02:21:01.756Z,1008.95
2018-06-13T02:22:01.738Z,1009.03
2018-06-13T02:23:01.703Z,1009.12
2018-06-13T02:24:01.677Z,1009.04
2018-06-13T02:25:01.654Z,1009.04
2018-06-13T02:26:01.625Z,1009.02
2018-06-13T02:27:01.599Z,1009.05
2018-06-13T02:28:01.577Z,1008.97
2018-06-13T02:29:01.548Z,1008.99
2018-06-13T02:30:01.527Z,1008.96
2018-06-13T02:31:01.500Z,1008.92
2018-06-13T02:32:01.471Z,1008.95
2018-06-13T02:33:01.446Z,1008.98
2018-06-13T02:34:01.417Z,1008.99
2018-06-13T02:35:01.391Z,1009.02
2018-06-13T02:36:01.365Z,1009.04
2018-06-13T02:37:01.338Z,1008.95
2018-06-13T02:38:01.321Z,1009.03
2018-06-13T02:39:01.338Z,1009.06
2018-06-13T02:40:01.267Z,1009.05
2018-06-13T02:41:01.236Z,1009.05
2018-06-13T02:42:01.212Z,1009.04
2018-06-13T02:43:01.186Z,1009.02
2018-06-13T02:44:01.157Z,1008.99
2018-06-13T02:45:01.132Z,1009.03
2018-06-13T02:46:01.107Z,1009.00
2018-06-13T02:47:01.078Z,1009.03
2018-06-13T02:48:01.054Z,1009.00
2018-06-13T02:49:01.027Z,1008.97
2018-06-13T02:50:01.000Z,1008.98
2018-06-13T02:51:00.975Z,1009.00
2018-06-13T02:52:00.957Z,1008.98
2018-06-13T02:53:00.922Z,1009.03
2018-06-13T02:54:00.899Z,1008.98
2018-06-13T02:55:00.870Z,1008.98
2018-06-13T02:56:00.845Z,1008.98
2018-06-13T02:57:00.819Z,1008.98
2018-06-13T02:58:00.805Z,1008.98
2018-06-13T02:59:00.769Z,1009.00
2018-06-13T03:00:00.742Z,1008.97
2018-06-13T03:01:00.714Z,1008.94
2018-06-13T03:02:00.689Z,1008.98
2018-06-13T03:03:00.665Z,1008.94
2018-06-13T03:04:00.637Z,1008.98
2018-06-13T03:05:00.616Z,1009.02
2018-06-13T03:06:00.589Z,1008.99
2018-06-13T03:07:00.561Z,1008.96
2018-06-13T03:08:00.534Z,1008.96
2018-06-13T03:09:00.508Z,1008.96
2018-06-13T03:10:00.503Z,1008.95
2018-06-13T03:11:00.459Z,1008.96
2018-06-13T03:12:00.431Z,1008.96
2018-06-13T03:13:00.410Z,1008.96
2018-06-13T03:14:00.378Z,1008.96
2018-06-13T03:15:00.353Z,1008.95
2018-06-13T03:16:00.331Z,1008.96
2018-06-13T03:17:00.300Z,1008.96
2018-06-13T03:18:00.275Z,1008.98
2018-06-13T03:19:00.249Z,1008.99
2018-06-13T03:20:00.228Z,1008.98
2018-06-13T03:21:00.198Z,1008.98
2018-06-13T03:22:00.171Z,1009.03
2018-06-13T03:23:00.145Z,1009.00
2018-06-13T03:24:00.128Z,1009.00
2018-06-13T03:25:00.095Z,1009.00
2018-06-13T03:26:00.072Z,1009.00
2018-06-13T03:27:00.051Z,1008.96
2018-06-13T03:28:00.021Z,1008.96
2018-06-13T03:28:59.990Z,1008.97
2018-06-13T03:29:59.965Z,1008.94
2018-06-13T03:30:59.941Z,1008.96
2018-06-13T03:31:59.914Z,1008.92
2018-06-13T03:32:59.888Z,1008.96
2018-06-13T03:33:59.866Z,1008.95
2018-06-13T03:34:59.836Z,1008.96
2018-06-13T03:35:59.812Z,1008.91
2018-06-13T03:36:59.787Z,1008.97
2018-06-13T03:37:59.758Z,1008.98
2018-06-13T03:38:59.736Z,1009.05
2018-06-13T03:39:59.709Z,1009.01
2018-06-13T03:40:59.712Z,1008.99
2018-06-13T03:41:59.655Z,1008.95
2018-06-13T03:42:59.630Z,1009.04
2018-06-13T03:43:59.604Z,1009.06
2018-06-13T03:44:59.583Z,1008.96
2018-06-13T03:45:59.552Z,1009.04
2018-06-13T03:46:59.526Z,1009.05
2018-06-13T03:47:59.500Z,1009.07
2018-06-13T03:48:59.474Z,1009.13
2018-06-13T03:49:59.449Z,1009.12
2018-06-13T03:50:59.423Z,1009.11
2018-06-13T03:51:59.401Z,1009.06
2018-06-13T03:52:59.372Z,1009.07
2018-06-13T03:53:59.350Z,1009.02
2018-06-13T03:54:59.321Z,1008.95
2018-06-13T03:55:59.297Z,1008.97
2018-06-13T03:56:59.271Z,1008.95
2018-06-13T03:57:59.244Z,1008.95
2018-06-13T03:58:59.218Z,1008.88
2018-06-13T03:59:59.193Z,1008.94
2018-06-13T04:00:59.179Z,1008.91
2018-06-13T04:01:59.140Z,1008.91
2018-06-13T04:02:59.116Z,1008.92
2018-06-13T04:03:59.089Z,1008.89
2018-06-13T04:04:59.063Z,1008.92
2018-06-13T04:05:59.039Z,1008.89
2018-06-13T04:06:59.014Z,1008.89
2018-06-13T04:07:58.993Z,1008.87
2018-06-13T04:08:58.960Z,1008.87
2018-06-13T04:09:58.935Z,1008.88
2018-06-13T04:10:58.913Z,1008.91
2018-06-13T04:11:58.886Z,1008.94
2018-06-13T04:12:58.852Z,1008.96
2018-06-13T04:13:58.827Z,1008.96
2018-06-13T04:14:58.809Z,1008.91
2018-06-13T04:15:58.784Z,1008.95
2018-06-13T04:16:58.756Z,1008.98
2018-06-13T04:17:58.723Z,1008.95
2018-06-13T04:18:58.909Z,1008.96
2018-06-13T04:19:58.674Z,1008.93
2018-06-13T04:20:58.651Z,1008.88
2018-06-13T04:21:58.624Z,1008.91
2018-06-13T04:22:58.595Z,1008.93
2018-06-13T04:23:58.579Z,1008.88
2018-06-13T04:24:58.543Z,1008.93
2018-06-13T04:25:58.518Z,1008.92
2018-06-13T04:26:58.494Z,1008.96
2018-06-13T04:27:58.468Z,1008.96
2018-06-13T04:28:58.441Z,1008.93
2018-06-13T04:29:58.417Z,1008.94
2018-06-13T04:30:58.391Z,1008.88
2018-06-13T04:31:58.365Z,1008.88
2018-06-13T04:32:58.340Z,1008.88
2018-06-13T04:33:58.313Z,1008.85
2018-06-13T04:34:58.290Z,1008.91
2018-06-13T04:35:58.264Z,1008.96
2018-06-13T04:36:58.237Z,1008.95
2018-06-13T04:37:58.212Z,1008.97
2018-06-13T04:38:58.187Z,1009.00
2018-06-13T04:39:58.162Z,1008.99
2018-06-13T04:40:58.136Z,1009.00
2018-06-13T04:41:58.115Z,1009.04
2018-06-13T04:42:58.086Z,1008.97
2018-06-13T04:43:58.061Z,1009.02
2018-06-13T04:44:58.034Z,1009.01
2018-06-13T04:45:58.010Z,1009.03
2018-06-13T04:46:57.985Z,1009.05
2018-06-13T04:47:57.961Z,1009.08
2018-06-13T04:48:57.932Z,1009.08
2018-06-13T04:49:57.907Z,1009.02
2018-06-13T04:50:57.882Z,1009.10
2018-06-13T04:51:57.857Z,1009.07
2018-06-13T04:52:57.831Z,1009.15
2018-06-13T04:53:57.806Z,1009.15
2018-06-13T04:54:57.781Z,1009.09
2018-06-13T04:55:57.757Z,1009.10
2018-06-13T04:56:57.730Z,1009.14
2018-06-13T04:57:57.705Z,1009.11
2018-06-13T04:58:57.689Z,1009.18
2018-06-13T04:59:57.660Z,1009.12
2018-06-13T05:00:57.630Z,1009.06
2018-06-13T05:01:57.607Z,1009.09
2018-06-13T05:02:57.786Z,1009.10
2018-06-13T05:03:57.553Z,1009.09
2018-06-13T05:04:57.527Z,1009.19
2018-06-13T05:05:57.505Z,1009.16
2018-06-13T05:06:57.481Z,1009.12
2018-06-13T05:07:57.452Z,1009.18
2018-06-13T05:08:57.430Z,1009.13
2018-06-13T05:09:57.402Z,1009.14
2018-06-13T05:10:57.376Z,1009.21
2018-06-13T05:11:57.352Z,1009.04
2018-06-13T05:12:57.329Z,1009.16
2018-06-13T05:13:57.300Z,1009.16
2018-06-13T05:14:57.275Z,1009.19
2018-06-13T05:15:57.252Z,1009.14
2018-06-13T05:16:57.224Z,1009.22
2018-06-13T05:17:57.199Z,1009.25
2018-06-13T05:18:57.174Z,1009.22
2018-06-13T05:19:57.153Z,1009.26
2018-06-13T05:20:57.131Z,1009.25
2018-06-13T05:21:57.098Z,1009.33
2018-06-13T05:22:57.075Z,1009.31
2018-06-13T05:23:57.053Z,1009.30
2018-06-13T05:24:57.022Z,1009.32
2018-06-13T05:25:57.001Z,1009.41
2018-06-13T05:26:56.974Z,1009.24
2018-06-13T05:27:56.948Z,1009.23
2018-06-13T05:28:56.923Z,1009.35
2018-06-13T05:29:56.904Z,1009.34
2018-06-13T05:30:56.876Z,1009.34
2018-06-13T05:31:56.849Z,1009.31
2018-06-13T05:32:56.838Z,1009.38
2018-06-13T05:33:56.832Z,1009.40
2018-06-13T05:34:56.778Z,1009.42
2018-06-13T05:35:56.750Z,1009.46
2018-06-13T05:36:56.723Z,1009.48
2018-06-13T05:37:56.700Z,1009.53
2018-06-13T05:38:56.675Z,1009.48
2018-06-13T05:39:56.656Z,1009.50
2018-06-13T05:40:56.628Z,1009.44
2018-06-13T05:41:56.606Z,1009.62
2018-06-13T05:42:56.583Z,1009.55
2018-06-13T05:43:56.603Z,1009.49
2018-06-13T05:44:56.537Z,1009.54
2018-06-13T05:45:56.508Z,1009.64
2018-06-13T05:46:56.480Z,1009.66
2018-06-13T05:47:56.456Z,1009.66
2018-06-13T05:48:56.430Z,1009.57
2018-06-13T05:49:56.406Z,1009.58
2018-06-13T05:50:56.383Z,1009.64
2018-06-13T05:51:56.360Z,1009.67
2018-06-13T05:52:56.334Z,1009.71
2018-06-13T05:53:56.310Z,1009.70
2018-06-13T05:54:56.339Z,1009.69
2018-06-13T05:55:56.262Z,1009.71
2018-06-13T05:56:56.236Z,1009.72
2018-06-13T05:57:56.213Z,1009.74
2018-06-13T05:58:56.188Z,1009.73
2018-06-13T05:59:56.165Z,1009.76
2018-06-13T06:00:56.141Z,1009.75
2018-06-13T06:01:56.117Z,1009.69
2018-06-13T06:02:56.094Z,1009.76
2018-06-13T06:03:56.070Z,1009.70
2018-06-13T06:04:56.045Z,1009.67
2018-06-13T06:05:56.022Z,1009.70
2018-06-13T06:06:55.998Z,1009.77
2018-06-13T06:07:55.976Z,1009.83
2018-06-13T06:08:55.953Z,1009.84
2018-06-13T06:09:55.928Z,1009.86
2018-06-13T06:10:55.904Z,1009.90
2018-06-13T06:11:55.881Z,1009.91
2018-06-13T06:12:55.856Z,1009.96
2018-06-13T06:13:55.833Z,1009.94
2018-06-13T06:14:55.810Z,1009.90
2018-06-13T06:15:55.789Z,1010.01
2018-06-13T06:16:55.763Z,1010.01
2018-06-13T06:17:55.739Z,1009.98
2018-06-13T06:18:55.716Z,1009.88
2018-06-13T06:19:55.694Z,1009.93
2018-06-13T06:20:55.669Z,1009.89
2018-06-13T06:21:55.654Z,1009.85
2018-06-13T06:22:55.622Z,1009.85
2018-06-13T06:23:55.601Z,1009.91
2018-06-13T06:24:55.576Z,1009.92
2018-06-13T06:25:55.554Z,1009.92
2018-06-13T06:26:55.537Z,1009.91
2018-06-13T06:27:55.507Z,1009.93
2018-06-13T06:28:55.482Z,1009.94
2018-06-13T06:29:55.462Z,1009.93
2018-06-13T06:30:55.437Z,1009.97
2018-06-13T06:31:55.414Z,1009.96
2018-06-13T06:32:55.390Z,1009.93
2018-06-13T06:33:55.367Z,1009.93
2018-06-13T06:34:55.348Z,1009.98
2018-06-13T06:35:55.321Z,1010.01
2018-06-13T06:36:55.310Z,1009.96
2018-06-13T06:37:55.274Z,1009.89
2018-06-13T06:38:55.252Z,1009.98
2018-06-13T06:39:55.229Z,1010.15
2018-06-13T06:40:55.206Z,1011.01
2018-06-13T06:41:55.183Z,1011.48
2018-06-13T06:42:55.160Z,1011.59
2018-06-13T06:43:55.137Z,1011.67
2018-06-13T06:44:55.316Z,1011.58
2018-06-13T06:45:55.092Z,1011.76
2018-06-13T06:46:55.070Z,1011.81
2018-06-13T06:47:55.067Z,1010.74
2018-06-13T06:48:55.030Z,1010.79
2018-06-13T06:49:55.034Z,1010.66
2018-06-13T06:50:54.988Z,1010.74
2018-06-13T06:51:54.966Z,1010.84
2018-06-13T06:52:54.945Z,1010.73
2018-06-13T06:53:54.926Z,1011.49
2018-06-13T06:54:54.904Z,1011.07
2018-06-13T06:55:54.884Z,1010.72
2018-06-13T06:56:54.863Z,1010.71
2018-06-13T06:57:54.845Z,1010.86
2018-06-13T06:58:54.824Z,1010.66
2018-06-13T06:59:54.806Z,1010.44
2018-06-13T07:00:54.784Z,1010.22
2018-06-13T07:01:54.764Z,1010.38
2018-06-13T07:02:54.745Z,1010.39
2018-06-13T07:03:54.745Z,1010.31
2018-06-13T07:04:54.704Z,1010.09
2018-06-13T07:05:54.687Z,1010.07
2018-06-13T07:06:54.665Z,1010.02
2018-06-13T07:07:54.657Z,1010.08
2018-06-13T07:08:54.628Z,1010.07
2018-06-13T07:09:54.607Z,1010.12
2018-06-13T07:10:54.588Z,1009.93
2018-06-13T07:11:54.564Z,1010.02
2018-06-13T07:12:54.544Z,1010.06
2018-06-13T07:13:54.522Z,1009.91
2018-06-13T07:14:54.501Z,1009.98
2018-06-13T07:15:54.482Z,1009.98
2018-06-13T07:16:54.459Z,1009.94
2018-06-13T07:17:54.438Z,1010.03
2018-06-13T07:18:54.455Z,1010.03
2018-06-13T07:19:54.395Z,1010.02
2018-06-13T07:20:54.374Z,1010.07
2018-06-13T07:21:54.351Z,1009.94
2018-06-13T07:22:54.332Z,1010.07
2018-06-13T07:23:54.308Z,1009.97
2018-06-13T07:24:54.287Z,1010.09
2018-06-13T07:25:54.264Z,1010.07
2018-06-13T07:26:54.242Z,1010.09
2018-06-13T07:27:54.221Z,1010.17
2018-06-13T07:28:54.196Z,1010.26
2018-06-13T07:29:54.175Z,1010.34
2018-06-13T07:30:54.184Z,1010.30
2018-06-13T07:31:54.130Z,1010.27
2018-06-13T07:32:54.108Z,1010.28
2018-06-13T07:33:54.091Z,1010.39
2018-06-13T07:34:54.066Z,1010.06
2018-06-13T07:35:54.044Z,1010.35
2018-06-13T07:36:54.017Z,1010.38
2018-06-13T07:37:54.005Z,1010.39
2018-06-13T07:38:53.974Z,1010.46
2018-06-13T07:39:53.952Z,1010.64
2018-06-13T07:40:53.928Z,1010.39
2018-06-13T07:41:53.907Z,1010.27
2018-06-13T07:42:53.903Z,1010.23
2018-06-13T07:43:53.864Z,1010.33
2018-06-13T07:44:53.841Z,1010.34
2018-06-13T07:45:53.824Z,1010.44
2018-06-13T07:46:53.800Z,1010.71
2018-06-13T07:47:53.776Z,1010.81
2018-06-13T07:48:53.753Z,1010.81
2018-06-13T07:49:53.738Z,1010.55
2018-06-13T07:50:53.718Z,1011.07
2018-06-13T07:51:53.690Z,1011.66
2018-06-13T07:52:53.673Z,1010.66
2018-06-13T07:53:53.651Z,1010.53
2018-06-13T07:54:53.626Z,1010.47
2018-06-13T07:55:53.607Z,1010.44
2018-06-13T07:56:53.584Z,1010.49
2018-06-13T07:57:53.564Z,1010.45
2018-06-13T07:58:53.545Z,1010.43
2018-06-13T07:59:53.548Z,1010.41
2018-06-13T08:00:53.504Z,1010.67
2018-06-13T08:01:53.483Z,1010.46
2018-06-13T08:02:53.462Z,1010.46
2018-06-13T08:03:53.441Z,1010.42
2018-06-13T08:04:53.426Z,1010.32
2018-06-13T08:05:53.406Z,1010.26
2018-06-13T08:06:53.381Z,1010.32
2018-06-13T08:07:53.361Z,1010.46
2018-06-13T08:08:53.397Z,1010.40
2018-06-13T08:09:53.319Z,1010.37
2018-06-13T08:10:53.299Z,1010.30
2018-06-13T08:11:53.278Z,1010.30
2018-06-13T08:12:53.258Z,1010.27
2018-06-13T08:13:53.245Z,1010.33
2018-06-13T08:14:53.217Z,1010.29
2018-06-13T08:15:53.199Z,1010.38
2018-06-13T08:16:53.208Z,1010.32
2018-06-13T08:17:53.163Z,1010.45
2018-06-13T08:18:53.137Z,1010.51
2018-06-13T08:19:53.109Z,1010.50
2018-06-13T08:20:53.090Z,1010.51
2018-06-13T08:21:53.067Z,1010.60
2018-06-13T08:22:53.049Z,1010.57
2018-06-13T08:23:53.066Z,1010.55
2018-06-13T08:24:53.005Z,1010.60
2018-06-13T08:25:52.984Z,1010.57
2018-06-13T08:26:52.963Z,1010.70
2018-06-13T08:27:52.941Z,1010.80
2018-06-13T08:28:52.922Z,1011.14
2018-06-13T08:29:52.901Z,1010.78
2018-06-13T08:30:52.878Z,1010.67
2018-06-13T08:31:52.859Z,1010.61
2018-06-13T08:32:52.837Z,1010.53
2018-06-13T08:33:52.817Z,1010.73
2018-06-13T08:34:52.798Z,1010.64
2018-06-13T08:35:52.778Z,1010.57
2018-06-13T08:36:52.756Z,1010.66
2018-06-13T08:37:52.737Z,1010.55
2018-06-13T08:38:52.728Z,1010.45
2018-06-13T08:39:52.723Z,1010.54
2018-06-13T08:40:52.683Z,1010.46
2018-06-13T08:41:52.656Z,1010.42
2018-06-13T08:42:52.638Z,1010.37
2018-06-13T08:43:52.632Z,1010.29
2018-06-13T08:44:52.598Z,1010.27
2018-06-13T08:45:52.583Z,1010.22
2018-06-13T08:46:52.558Z,1010.29
2018-06-13T08:47:52.538Z,1010.39
2018-06-13T08:48:52.517Z,1010.47
2018-06-13T08:49:52.509Z,1010.44
2018-06-13T08:50:52.477Z,1010.46
2018-06-13T08:51:52.457Z,1010.46
2018-06-13T08:52:52.436Z,1010.39
2018-06-13T08:53:52.415Z,1010.41
2018-06-13T08:54:52.396Z,1010.43
2018-06-13T08:55:52.376Z,1010.63
2018-06-13T08:56:52.358Z,1010.80
2018-06-13T08:57:52.334Z,1010.82
2018-06-13T08:58:52.313Z,1010.79
2018-06-13T08:59:52.295Z,1010.70
2018-06-13T09:00:52.271Z,1011.18
2018-06-13T09:01:52.251Z,1010.56
2018-06-13T09:02:52.234Z,1010.56
2018-06-13T09:03:52.211Z,1010.58
2018-06-13T09:04:52.190Z,1010.61
2018-06-13T09:05:52.173Z,1010.66
2018-06-13T09:06:52.152Z,1010.64
2018-06-13T09:07:52.131Z,1010.62
2018-06-13T09:08:52.113Z,1010.67
2018-06-13T09:09:52.096Z,1010.70
2018-06-13T09:10:52.077Z,1010.75
2018-06-13T09:11:52.064Z,1010.76
2018-06-13T09:12:52.029Z,1011.21
2018-06-13T09:13:52.015Z,1010.77
2018-06-13T09:14:52.026Z,1010.69
2018-06-13T09:15:51.976Z,1010.64
2018-06-13T09:16:51.961Z,1010.62
2018-06-13T09:17:51.936Z,1010.55
2018-06-13T09:18:51.918Z,1010.60
2018-06-13T09:19:51.900Z,1010.73
2018-06-13T09:20:51.874Z,1011.38
2018-06-13T09:21:51.858Z,1011.21
2018-06-13T09:22:51.857Z,1010.82
2018-06-13T09:23:51.817Z,1010.62
2018-06-13T09:24:51.797Z,1010.75
2018-06-13T09:25:51.778Z,1010.82
2018-06-13T09:26:51.760Z,1010.74
2018-06-13T09:27:51.741Z,1010.54
2018-06-13T09:28:51.720Z,1010.64
2018-06-13T09:29:51.719Z,1010.77
2018-06-13T09:30:51.683Z,1010.67
2018-06-13T09:31:51.664Z,1010.67
2018-06-13T09:32:51.644Z,1010.66
2018-06-13T09:33:51.646Z,1010.57
2018-06-13T09:34:51.607Z,1010.44
2018-06-13T09:35:51.586Z,1010.56
2018-06-13T09:36:51.566Z,1010.64
2018-06-13T09:37:51.548Z,1010.66
2018-06-13T09:38:51.531Z,1010.60
2018-06-13T09:39:51.512Z,1010.64
2018-06-13T09:40:51.488Z,1010.64
2018-06-13T09:41:51.468Z,1010.73
2018-06-13T09:42:51.453Z,1010.66
2018-06-13T09:43:51.429Z,1010.73
2018-06-13T09:44:51.407Z,1010.77
2018-06-13T09:45:51.389Z,1010.67
2018-06-13T09:46:51.369Z,1010.58
2018-06-13T09:47:51.352Z,1010.68
2018-06-13T09:48:51.329Z,1010.84
2018-06-13T09:49:51.309Z,1010.96
2018-06-13T09:50:51.289Z,1010.91
2018-06-13T09:51:51.269Z,1011.03
2018-06-13T09:52:51.249Z,1010.97
2018-06-13T09:53:51.230Z,1011.06
2018-06-13T09:54:51.264Z,1011.17
2018-06-13T09:55:51.395Z,1011.01
2018-06-13T09:56:51.237Z,1011.20
2018-06-13T09:57:51.154Z,1011.26
2018-06-13T09:58:51.135Z,1011.55
2018-06-13T09:59:51.118Z,1011.38
2018-06-13T10:00:51.098Z,1011.00
2018-06-13T10:01:51.090Z,1010.89
2018-06-13T10:02:51.068Z,1010.86
2018-06-13T10:03:51.046Z,1010.77
2018-06-13T10:04:51.030Z,1010.76
2018-06-13T10:05:51.019Z,1010.76
2018-06-13T10:06:50.994Z,1010.83
2018-06-13T10:07:50.979Z,1010.65
2018-06-13T10:08:50.961Z,1010.69
2018-06-13T10:09:50.940Z,1010.61
2018-06-13T10:10:50.932Z,1010.74
2018-06-13T10:11:50.911Z,1010.69
2018-06-13T10:12:50.885Z,1010.72
2018-06-13T10:13:50.867Z,1010.75
2018-06-13T10:14:50.916Z,1010.78
2018-06-13T10:15:50.832Z,1010.82
2018-06-13T10:16:50.811Z,1010.83
2018-06-13T10:17:50.798Z,1010.79
2018-06-13T10:18:50.774Z,1010.66
2018-06-13T10:19:50.757Z,1010.62
2018-06-13T10:20:50.745Z,1010.56
2018-06-13T10:21:50.719Z,1010.59
2018-06-13T10:22:50.710Z,1010.71
2018-06-13T10:23:50.699Z,1010.67
2018-06-13T10:24:50.659Z,1010.68
2018-06-13T10:25:50.639Z,1010.58
2018-06-13T10:26:50.620Z,1010.63
2018-06-13T10:27:50.600Z,1010.66
2018-06-13T10:28:50.583Z,1010.74
2018-06-13T10:29:50.571Z,1010.79
2018-06-13T10:30:50.543Z,1010.83
2018-06-13T10:31:50.522Z,1010.75
2018-06-13T10:32:50.497Z,1010.67
2018-06-13T10:33:50.479Z,1010.89
2018-06-13T10:34:50.461Z,1010.94
2018-06-13T10:35:50.439Z,1010.83
2018-06-13T10:36:50.422Z,1010.94
2018-06-13T10:37:50.403Z,1010.98
2018-06-13T10:38:50.381Z,1010.96
2018-06-13T10:39:50.363Z,1010.93
2018-06-13T10:40:50.335Z,1010.99
2018-06-13T10:41:50.316Z,1010.84
2018-06-13T10:42:50.295Z,1011.01
2018-06-13T10:43:50.275Z,1011.06
2018-06-13T10:44:50.253Z,1011.02
2018-06-13T10:45:50.233Z,1011.08
2018-06-13T10:46:50.221Z,1011.06
2018-06-13T10:47:50.192Z,1011.19
2018-06-13T10:48:50.174Z,1011.25
2018-06-13T10:49:50.192Z,1011.24
2018-06-13T10:50:50.130Z,1011.32
2018-06-13T10:51:50.111Z,1011.23
2018-06-13T10:52:50.090Z,1011.30
2018-06-13T10:53:50.077Z,1011.31
2018-06-13T10:54:50.049Z,1011.33
2018-06-13T10:55:50.030Z,1011.47
2018-06-13T10:56:50.009Z,1012.37
2018-06-13T10:57:49.990Z,1011.30
2018-06-13T10:58:49.975Z,1011.26
2018-06-13T10:59:49.952Z,1011.14
2018-06-13T11:00:49.945Z,1011.01
2018-06-13T11:01:49.916Z,1011.01
2018-06-13T11:02:49.913Z,1010.85
2018-06-13T11:03:49.874Z,1010.81
2018-06-13T11:04:49.937Z,1010.84
2018-06-13T11:05:49.839Z,1010.82
2018-06-13T11:06:49.818Z,1010.92
2018-06-13T11:07:49.805Z,1010.92
2018-06-13T11:08:49.779Z,1010.89
2018-06-13T11:09:49.759Z,1010.93
2018-06-13T11:10:49.742Z,1010.91
2018-06-13T11:11:49.722Z,1011.03
2018-06-13T11:12:49.714Z,1011.06
2018-06-13T11:13:49.681Z,1011.10
2018-06-13T11:14:49.666Z,1011.20
2018-06-13T11:15:49.642Z,1011.16
2018-06-13T11:16:49.621Z,1011.07
2018-06-13T11:17:49.602Z,1011.08
2018-06-13T11:18:49.586Z,1010.95
2018-06-13T11:19:49.566Z,1010.92
2018-06-13T11:20:49.543Z,1010.94
2018-06-13T11:21:49.523Z,1010.91
2018-06-13T11:22:49.538Z,1010.86
2018-06-13T11:23:49.483Z,1010.83
2018-06-13T11:24:49.463Z,1010.83
2018-06-13T11:25:49.445Z,1010.93
2018-06-13T11:26:49.424Z,1010.87
2018-06-13T11:27:49.404Z,1010.97
2018-06-13T11:28:49.387Z,1011.01
2018-06-13T11:29:49.361Z,1011.04
2018-06-13T11:30:49.343Z,1011.14
2018-06-13T11:31:49.323Z,1011.25
2018-06-13T11:32:49.301Z,1011.24
2018-06-13T11:33:49.281Z,1011.29
2018-06-13T11:34:49.260Z,1011.44
2018-06-13T11:35:49.242Z,1011.43
2018-06-13T11:36:49.222Z,1011.35
2018-06-13T11:37:49.201Z,1011.34
2018-06-13T11:38:49.183Z,1011.26
2018-06-13T11:39:49.161Z,1011.13
2018-06-13T11:40:49.140Z,1011.06
2018-06-13T11:41:49.123Z,1011.11
2018-06-13T11:42:49.106Z,1010.83
2018-06-13T11:43:49.082Z,1010.95
2018-06-13T11:44:49.066Z,1011.06
2018-06-13T11:45:49.048Z,1010.96
2018-06-13T11:46:49.023Z,1010.98
2018-06-13T11:47:49.007Z,1011.17
2018-06-13T11:48:48.982Z,1011.22
2018-06-13T11:49:48.963Z,1011.10
2018-06-13T11:50:48.942Z,1011.06
2018-06-13T11:51:48.935Z,1011.11
2018-06-13T11:52:48.905Z,1011.07
2018-06-13T11:53:48.885Z,1011.08
2018-06-13T11:54:48.861Z,1011.05
2018-06-13T11:55:48.841Z,1011.04
2018-06-13T11:56:48.820Z,1011.10
2018-06-13T11:57:48.799Z,1011.11
2018-06-13T11:58:48.785Z,1011.06
2018-06-13T11:59:48.785Z,1010.94
2018-06-13T12:00:48.737Z,1010.91
2018-06-13T12:01:48.755Z,1010.88
2018-06-13T12:02:48.695Z,1010.91
2018-06-13T12:03:48.685Z,1010.94
2018-06-13T12:04:48.652Z,1010.80